This demonstration page uses our WeatherBlox Daily Observations layout. Learn more.

36.19886, -115.1175

Hourly Observations for May 23, 2018

Temp ( °F °C ) Dew Point ( °F °C ) Humidity (%) Winds ( mph kmh ) Pressure ( in mb ) Visibility ( mi km ) Precip ( " mm )
12:53 am 00:53 Clear 72 22.2 37 2.8 28 28 NE 6 9 29.77 1008 10 16.09344 0 0
1:53 am 01:53 Clear 71 21.7 36 2.2 28 28 Calm 29.77 1008 10 16.09344 0 0
2:53 am 02:53 Clear 68 20 35 1.7 30 30 NW 5 7 29.77 1008 10 16.09344 0 0
3:53 am 03:53 Clear 67 19.4 36 2.2 32 32 N 5 7 29.8 1009 10 16.09344 0 0
4:53 am 04:53 Clear 67 19.4 37 2.8 33 33 NW 5 7 29.8 1009 10 16.09344 0 0
5:53 am 05:53 Sunny 65 18.3 39 3.9 39 39 NNW 3 6 29.83 1010 10 16.09344 0 0
6:53 am 06:53 Sunny 70 21.1 37 2.8 30 30 NE 3 6 29.83 1010 10 16.09344 0 0
7:53 am 07:53 Sunny 73 22.8 36 2.2 26 26 ESE 5 7 29.85 1011 10 16.09344 0 0
8:53 am 08:53 Sunny 77 25 33 0.6 20 20 E 9 15 29.85 1011 10 16.09344 0 0
9:53 am 09:53 Sunny 79 26.1 33 0.6 19 19 SE 7 11 29.85 1011 10 16.09344 0 0
10:53 am 10:53 Sunny 83 28.3 32 0 16 16 SSE 10 17 29.85 1011 10 16.09344 0 0
11:53 am 11:53 Sunny 86 30 30 -1.1 13 13 S 14 22 29.85 1011 10 16.09344 0 0
12:53 pm 12:53 Sunny 86 30 29 -1.7 13 13 ESE 8 13 29.83 1010 10 16.09344 0 0
1:53 pm 13:53 Sunny 87 30.6 26 -3.3 11 11 S 10 17 29.83 1010 10 16.09344 0 0
2:53 pm 14:53 Sunny 89 31.7 28 -2.2 11 11 undefined N/A 29.8 1009 10 16.09344 0 0
3:53 pm 15:53 Sunny 89 31.7 26 -3.3 10 10 N 6 9 29.8 1009 10 16.09344 0 0
4:53 pm 16:53 Sunny 89 31.7 27 -2.8 11 11 ESE 6 9 29.8 1009 10 16.09344 0 0
5:53 pm 17:53 Sunny 89 31.7 28 -2.2 11 11 SE 9 15 29.77 1008 10 16.09344 0 0
6:53 pm 18:53 Sunny 87 30.6 28 -2.2 12 12 SE 13 20 29.77 1008 10 16.09344 0 0
7:53 pm 19:53 Clear 86 30 27 -2.8 12 12 SSE 16 26 29.8 1009 10 16.09344 0 0
8:53 pm 20:53 Clear 84 28.9 26 -3.3 12 12 SSE 12 19 29.83 1010 10 16.09344 0 0
9:53 pm 21:53 Clear 83 28.3 29 -1.7 14 14 S 9 15 29.85 1011 10 16.09344 0 0
10:53 pm 22:53 Clear 82 27.8 30 -1.1 15 15 SSW 10 17 29.85 1011 10 16.09344 0 0
11:53 pm 23:53 Clear 79 26.1 32 0 18 18 SW 5 7 29.85 1011 10 16.09344 0 0

Powered by AerisWeather